sensor_id;sensor_type;location;lat;lon;timestamp;temperature;humidity
71142;DHT22;58808;59.366;17.970;2022-11-12T00:00:43;14.80;99.90
71142;DHT22;58808;59.366;17.970;2022-11-12T00:03:09;14.80;99.90
71142;DHT22;58808;59.366;17.970;2022-11-12T00:05:35;14.80;99.90
71142;DHT22;58808;59.366;17.970;2022-11-12T00:08:01;14.80;99.90
71142;DHT22;58808;59.366;17.970;2022-11-12T00:10:27;14.80;99.90
71142;DHT22;58808;59.366;17.970;2022-11-12T00:12:53;14.80;99.90
71142;DHT22;58808;59.366;17.970;2022-11-12T00:15:19;14.80;99.90
71142;DHT22;58808;59.366;17.970;2022-11-12T00:17:51;14.70;99.90
71142;DHT22;58808;59.366;17.970;2022-11-12T00:20:19;14.70;99.90
71142;DHT22;58808;59.366;17.970;2022-11-12T00:22:45;14.70;99.90
71142;DHT22;58808;59.366;17.970;2022-11-12T00:25:11;14.70;99.90
71142;DHT22;58808;59.366;17.970;2022-11-12T00:27:36;14.70;99.90
71142;DHT22;58808;59.366;17.970;2022-11-12T00:30:06;14.70;99.90
71142;DHT22;58808;59.366;17.970;2022-11-12T00:32:34;14.70;99.90
71142;DHT22;58808;59.366;17.970;2022-11-12T00:35:00;14.70;99.90
71142;DHT22;58808;59.366;17.970;2022-11-12T00:37:26;14.60;99.90
71142;DHT22;58808;59.366;17.970;2022-11-12T00:39:51;14.60;99.90
71142;DHT22;58808;59.366;17.970;2022-11-12T00:42:17;14.60;99.90
71142;DHT22;58808;59.366;17.970;2022-11-12T00:44:43;14.60;99.90
71142;DHT22;58808;59.366;17.970;2022-11-12T00:47:09;14.50;99.90
71142;DHT22;58808;59.366;17.970;2022-11-12T00:49:34;14.50;99.90
71142;DHT22;58808;59.366;17.970;2022-11-12T00:52:00;14.50;99.90
71142;DHT22;58808;59.366;17.970;2022-11-12T00:54:26;14.50;99.90
71142;DHT22;58808;59.366;17.970;2022-11-12T00:56:51;14.50;99.90
71142;DHT22;58808;59.366;17.970;2022-11-12T00:59:17;14.50;99.90
71142;DHT22;58808;59.366;17.970;2022-11-12T01:01:42;14.50;99.90
71142;DHT22;58808;59.366;17.970;2022-11-12T01:04:08;14.50;99.90
71142;DHT22;58808;59.366;17.970;2022-11-12T01:06:37;14.50;99.90
71142;DHT22;58808;59.366;17.970;2022-11-12T01:09:03;14.40;99.90
71142;DHT22;58808;59.366;17.970;2022-11-12T01:11:29;14.40;99.90
71142;DHT22;58808;59.366;17.970;2022-11-12T01:13:57;14.40;99.90
71142;DHT22;58808;59.366;17.970;2022-11-12T01:16:26;14.40;99.90
71142;DHT22;58808;59.366;17.970;2022-11-12T01:18:54;14.50;99.90
71142;DHT22;58808;59.366;17.970;2022-11-12T01:21:22;14.40;99.90
71142;DHT22;58808;59.366;17.970;2022-11-12T01:23:48;14.40;99.90
71142;DHT22;58808;59.366;17.970;2022-11-12T01:26:20;14.40;99.90
71142;DHT22;58808;59.366;17.970;2022-11-12T01:28:46;14.40;99.90
71142;DHT22;58808;59.366;17.970;2022-11-12T01:33:38;14.40;99.90
71142;DHT22;58808;59.366;17.970;2022-11-12T01:36:04;14.40;99.90
71142;DHT22;58808;59.366;17.970;2022-11-12T01:38:33;14.40;99.90
71142;DHT22;58808;59.366;17.970;2022-11-12T01:40:59;14.40;99.90
71142;DHT22;58808;59.366;17.970;2022-11-12T01:43:25;14.40;99.90
71142;DHT22;58808;59.366;17.970;2022-11-12T01:45:52;14.40;99.90
71142;DHT22;58808;59.366;17.970;2022-11-12T01:48:44;14.40;99.90
71142;DHT22;58808;59.366;17.970;2022-11-12T01:51:11;14.40;99.90
71142;DHT22;58808;59.366;17.970;2022-11-12T01:53:47;14.40;99.90
71142;DHT22;58808;59.366;17.970;2022-11-12T01:56:15;14.40;99.90
71142;DHT22;58808;59.366;17.970;2022-11-12T01:58:43;14.40;99.90
71142;DHT22;58808;59.366;17.970;2022-11-12T02:01:09;14.40;99.90
71142;DHT22;58808;59.366;17.970;2022-11-12T02:03:35;14.40;99.90
71142;DHT22;58808;59.366;17.970;2022-11-12T02:06:08;14.40;99.90
71142;DHT22;58808;59.366;17.970;2022-11-12T02:08:36;14.40;99.90
71142;DHT22;58808;59.366;17.970;2022-11-12T02:11:14;14.40;99.90
71142;DHT22;58808;59.366;17.970;2022-11-12T02:13:41;14.40;99.90
71142;DHT22;58808;59.366;17.970;2022-11-12T02:16:34;14.40;99.90
71142;DHT22;58808;59.366;17.970;2022-11-12T02:19:02;14.40;99.90
71142;DHT22;58808;59.366;17.970;2022-11-12T02:21:28;14.50;99.90
71142;DHT22;58808;59.366;17.970;2022-11-12T02:24:02;14.40;99.90
71142;DHT22;58808;59.366;17.970;2022-11-12T02:26:32;14.50;99.90
71142;DHT22;58808;59.366;17.970;2022-11-12T02:28:58;14.40;99.90
71142;DHT22;58808;59.366;17.970;2022-11-12T02:31:24;14.40;99.90
71142;DHT22;58808;59.366;17.970;2022-11-12T02:33:50;14.40;99.90
71142;DHT22;58808;59.366;17.970;2022-11-12T02:36:15;14.40;99.90
71142;DHT22;58808;59.366;17.970;2022-11-12T02:38:41;14.40;99.90
71142;DHT22;58808;59.366;17.970;2022-11-12T02:41:07;14.40;99.90
71142;DHT22;58808;59.366;17.970;2022-11-12T02:43:33;14.40;99.90
71142;DHT22;58808;59.366;17.970;2022-11-12T02:45:58;14.40;99.90
71142;DHT22;58808;59.366;17.970;2022-11-12T02:48:24;14.40;99.90
71142;DHT22;58808;59.366;17.970;2022-11-12T02:50:49;14.40;99.90
71142;DHT22;58808;59.366;17.970;2022-11-12T02:53:15;14.40;99.90
71142;DHT22;58808;59.366;17.970;2022-11-12T02:55:42;14.40;99.90
71142;DHT22;58808;59.366;17.970;2022-11-12T02:58:08;14.40;99.90
71142;DHT22;58808;59.366;17.970;2022-11-12T03:00:33;14.40;99.90
71142;DHT22;58808;59.366;17.970;2022-11-12T03:02:59;14.40;99.90
71142;DHT22;58808;59.366;17.970;2022-11-12T03:05:29;14.40;99.90
71142;DHT22;58808;59.366;17.970;2022-11-12T03:08:05;14.40;99.90
71142;DHT22;58808;59.366;17.970;2022-11-12T03:10:31;14.50;99.90
71142;DHT22;58808;59.366;17.970;2022-11-12T03:12:59;14.50;99.90
71142;DHT22;58808;59.366;17.970;2022-11-12T03:15:26;14.40;99.90
71142;DHT22;58808;59.366;17.970;2022-11-12T03:17:52;14.40;99.90
71142;DHT22;58808;59.366;17.970;2022-11-12T03:20:19;14.40;99.90
71142;DHT22;58808;59.366;17.970;2022-11-12T03:23:03;14.40;99.90
71142;DHT22;58808;59.366;17.970;2022-11-12T03:25:28;14.40;99.90
71142;DHT22;58808;59.366;17.970;2022-11-12T03:28:04;14.50;99.90
71142;DHT22;58808;59.366;17.970;2022-11-12T03:30:32;14.50;99.90
71142;DHT22;58808;59.366;17.970;2022-11-12T03:32:57;14.50;99.90
71142;DHT22;58808;59.366;17.970;2022-11-12T03:35:23;14.50;99.90
71142;DHT22;58808;59.366;17.970;2022-11-12T03:37:51;14.50;99.90
71142;DHT22;58808;59.366;17.970;2022-11-12T03:40:17;14.60;99.90
71142;DHT22;58808;59.366;17.970;2022-11-12T03:42:47;14.60;99.90
71142;DHT22;58808;59.366;17.970;2022-11-12T03:45:13;14.60;99.90
71142;DHT22;58808;59.366;17.970;2022-11-12T03:47:43;14.60;99.90
71142;DHT22;58808;59.366;17.970;2022-11-12T03:50:11;14.60;99.90
71142;DHT22;58808;59.366;17.970;2022-11-12T03:52:37;14.70;99.90
71142;DHT22;58808;59.366;17.970;2022-11-12T03:55:04;14.60;99.90
71142;DHT22;58808;59.366;17.970;2022-11-12T03:57:30;14.60;99.90
71142;DHT22;58808;59.366;17.970;2022-11-12T03:59:56;14.60;99.90
71142;DHT22;58808;59.366;17.970;2022-11-12T04:02:22;14.60;99.90
71142;DHT22;58808;59.366;17.970;2022-11-12T04:04:49;14.60;99.90
71142;DHT22;58808;59.366;17.970;2022-11-12T04:07:34;14.60;99.90
71142;DHT22;58808;59.366;17.970;2022-11-12T04:10:18;14.60;99.90
71142;DHT22;58808;59.366;17.970;2022-11-12T04:12:43;14.60;99.90
71142;DHT22;58808;59.366;17.970;2022-11-12T04:15:27;14.60;99.90
71142;DHT22;58808;59.366;17.970;2022-11-12T04:17:53;14.60;99.90
71142;DHT22;58808;59.366;17.970;2022-11-12T04:20:37;14.60;99.90
71142;DHT22;58808;59.366;17.970;2022-11-12T04:23:21;14.60;99.90
71142;DHT22;58808;59.366;17.970;2022-11-12T04:25:47;14.60;99.90
71142;DHT22;58808;59.366;17.970;2022-11-12T04:28:31;14.60;99.90
71142;DHT22;58808;59.366;17.970;2022-11-12T04:30:56;14.50;99.90
71142;DHT22;58808;59.366;17.970;2022-11-12T04:33:22;14.50;99.90
71142;DHT22;58808;59.366;17.970;2022-11-12T04:35:48;14.50;99.90
71142;DHT22;58808;59.366;17.970;2022-11-12T04:38:13;14.50;99.90
71142;DHT22;58808;59.366;17.970;2022-11-12T04:40:39;14.50;99.90
71142;DHT22;58808;59.366;17.970;2022-11-12T04:43:23;14.50;99.90
71142;DHT22;58808;59.366;17.970;2022-11-12T04:46:08;14.50;99.90
71142;DHT22;58808;59.366;17.970;2022-11-12T04:48:34;14.50;99.90
71142;DHT22;58808;59.366;17.970;2022-11-12T04:51:01;14.50;99.90
71142;DHT22;58808;59.366;17.970;2022-11-12T04:53:29;14.50;99.90
71142;DHT22;58808;59.366;17.970;2022-11-12T04:55:56;14.50;99.90
71142;DHT22;58808;59.366;17.970;2022-11-12T04:58:22;14.40;99.90
71142;DHT22;58808;59.366;17.970;2022-11-12T05:00:49;14.40;99.90
71142;DHT22;58808;59.366;17.970;2022-11-12T05:03:15;14.40;99.90
71142;DHT22;58808;59.366;17.970;2022-11-12T05:05:41;14.40;99.90
71142;DHT22;58808;59.366;17.970;2022-11-12T05:08:06;14.50;99.90
71142;DHT22;58808;59.366;17.970;2022-11-12T05:10:32;14.40;99.90
71142;DHT22;58808;59.366;17.970;2022-11-12T05:12:58;14.40;99.90
71142;DHT22;58808;59.366;17.970;2022-11-12T05:15:23;14.40;99.90
71142;DHT22;58808;59.366;17.970;2022-11-12T05:17:49;14.40;99.90
71142;DHT22;58808;59.366;17.970;2022-11-12T05:20:16;14.30;99.90
71142;DHT22;58808;59.366;17.970;2022-11-12T05:22:42;14.40;99.90
71142;DHT22;58808;59.366;17.970;2022-11-12T05:25:07;14.40;99.90
71142;DHT22;58808;59.366;17.970;2022-11-12T05:27:33;14.40;99.90
71142;DHT22;58808;59.366;17.970;2022-11-12T05:29:59;14.40;99.90
71142;DHT22;58808;59.366;17.970;2022-11-12T05:32:26;14.30;99.90
71142;DHT22;58808;59.366;17.970;2022-11-12T05:34:51;14.30;99.90
71142;DHT22;58808;59.366;17.970;2022-11-12T05:37:17;14.30;99.90
71142;DHT22;58808;59.366;17.970;2022-11-12T05:39:43;14.30;99.90
71142;DHT22;58808;59.366;17.970;2022-11-12T05:42:09;14.20;99.90
71142;DHT22;58808;59.366;17.970;2022-11-12T05:44:34;14.20;99.90
71142;DHT22;58808;59.366;17.970;2022-11-12T05:47:00;14.20;99.90
71142;DHT22;58808;59.366;17.970;2022-11-12T05:49:25;14.20;99.90
71142;DHT22;58808;59.366;17.970;2022-11-12T05:51:51;14.20;99.90
71142;DHT22;58808;59.366;17.970;2022-11-12T05:54:17;14.10;99.90
71142;DHT22;58808;59.366;17.970;2022-11-12T05:56:43;14.10;99.90
71142;DHT22;58808;59.366;17.970;2022-11-12T05:59:11;14.10;99.90
71142;DHT22;58808;59.366;17.970;2022-11-12T06:01:37;14.10;99.90
71142;DHT22;58808;59.366;17.970;2022-11-12T06:04:12;14.10;99.90
71142;DHT22;58808;59.366;17.970;2022-11-12T06:06:39;14.10;99.90
71142;DHT22;58808;59.366;17.970;2022-11-12T06:09:06;14.10;99.90
71142;DHT22;58808;59.366;17.970;2022-11-12T06:11:32;14.00;99.90
71142;DHT22;58808;59.366;17.970;2022-11-12T06:13:58;14.00;99.90
71142;DHT22;58808;59.366;17.970;2022-11-12T06:16:24;14.00;99.90
71142;DHT22;58808;59.366;17.970;2022-11-12T06:18:49;13.90;99.90
71142;DHT22;58808;59.366;17.970;2022-11-12T06:21:15;13.90;99.90
71142;DHT22;58808;59.366;17.970;2022-11-12T06:23:47;13.90;99.90
71142;DHT22;58808;59.366;17.970;2022-11-12T06:26:13;13.90;99.90
71142;DHT22;58808;59.366;17.970;2022-11-12T06:28:39;13.80;99.90
71142;DHT22;58808;59.366;17.970;2022-11-12T06:31:05;13.90;99.90
71142;DHT22;58808;59.366;17.970;2022-11-12T06:33:31;13.80;99.90
71142;DHT22;58808;59.366;17.970;2022-11-12T06:36:01;13.80;99.90
71142;DHT22;58808;59.366;17.970;2022-11-12T06:38:35;13.80;99.90
71142;DHT22;58808;59.366;17.970;2022-11-12T06:41:01;13.80;99.90
71142;DHT22;58808;59.366;17.970;2022-11-12T06:43:29;13.80;99.90
71142;DHT22;58808;59.366;17.970;2022-11-12T06:46:00;13.80;99.90
71142;DHT22;58808;59.366;17.970;2022-11-12T06:48:27;13.80;99.90
71142;DHT22;58808;59.366;17.970;2022-11-12T06:50:53;13.80;99.90
71142;DHT22;58808;59.366;17.970;2022-11-12T06:53:19;13.80;99.90
71142;DHT22;58808;59.366;17.970;2022-11-12T06:55:44;13.80;99.90
71142;DHT22;58808;59.366;17.970;2022-11-12T06:58:10;13.80;99.90
71142;DHT22;58808;59.366;17.970;2022-11-12T07:00:36;13.80;99.90
71142;DHT22;58808;59.366;17.970;2022-11-12T07:03:06;13.70;99.90
71142;DHT22;58808;59.366;17.970;2022-11-12T07:05:37;13.80;99.90
71142;DHT22;58808;59.366;17.970;2022-11-12T07:08:04;13.80;99.90
71142;DHT22;58808;59.366;17.970;2022-11-12T07:10:30;13.80;99.90
71142;DHT22;58808;59.366;17.970;2022-11-12T07:12:56;13.70;99.90
71142;DHT22;58808;59.366;17.970;2022-11-12T07:15:21;13.80;99.90
71142;DHT22;58808;59.366;17.970;2022-11-12T07:17:53;13.80;99.90
71142;DHT22;58808;59.366;17.970;2022-11-12T07:20:18;13.80;99.90
71142;DHT22;58808;59.366;17.970;2022-11-12T07:22:44;13.80;99.90
71142;DHT22;58808;59.366;17.970;2022-11-12T07:25:12;13.80;99.90
71142;DHT22;58808;59.366;17.970;2022-11-12T07:27:44;13.80;99.90
71142;DHT22;58808;59.366;17.970;2022-11-12T07:30:12;13.80;99.90
71142;DHT22;58808;59.366;17.970;2022-11-12T07:32:38;13.80;99.90
71142;DHT22;58808;59.366;17.970;2022-11-12T07:35:04;13.80;99.90
71142;DHT22;58808;59.366;17.970;2022-11-12T07:37:30;13.80;99.90
71142;DHT22;58808;59.366;17.970;2022-11-12T07:39:56;13.80;99.90
71142;DHT22;58808;59.366;17.970;2022-11-12T07:42:21;13.80;99.90
71142;DHT22;58808;59.366;17.970;2022-11-12T07:44:47;13.90;99.90
71142;DHT22;58808;59.366;17.970;2022-11-12T07:47:13;13.90;99.90
71142;DHT22;58808;59.366;17.970;2022-11-12T07:49:41;13.90;99.90
71142;DHT22;58808;59.366;17.970;2022-11-12T07:52:06;14.00;99.90
71142;DHT22;58808;59.366;17.970;2022-11-12T07:54:35;14.00;99.90
71142;DHT22;58808;59.366;17.970;2022-11-12T07:57:01;14.00;99.90
71142;DHT22;58808;59.366;17.970;2022-11-12T07:59:36;14.00;99.90
71142;DHT22;58808;59.366;17.970;2022-11-12T08:02:04;14.10;99.90
71142;DHT22;58808;59.366;17.970;2022-11-12T08:04:30;14.10;99.90
71142;DHT22;58808;59.366;17.970;2022-11-12T08:06:59;14.20;99.90
71142;DHT22;58808;59.366;17.970;2022-11-12T08:09:24;14.20;99.90
71142;DHT22;58808;59.366;17.970;2022-11-12T08:11:50;14.20;99.90
71142;DHT22;58808;59.366;17.970;2022-11-12T08:14:16;14.20;99.90
71142;DHT22;58808;59.366;17.970;2022-11-12T08:16:56;14.20;99.90
71142;DHT22;58808;59.366;17.970;2022-11-12T08:19:22;14.10;99.90
71142;DHT22;58808;59.366;17.970;2022-11-12T08:21:48;14.10;99.90
71142;DHT22;58808;59.366;17.970;2022-11-12T08:24:13;14.10;99.90
71142;DHT22;58808;59.366;17.970;2022-11-12T08:26:39;14.20;99.90
71142;DHT22;58808;59.366;17.970;2022-11-12T08:29:10;14.10;99.90
71142;DHT22;58808;59.366;17.970;2022-11-12T08:31:38;14.20;99.90
71142;DHT22;58808;59.366;17.970;2022-11-12T08:34:04;14.20;99.90
71142;DHT22;58808;59.366;17.970;2022-11-12T08:36:36;14.20;99.90
71142;DHT22;58808;59.366;17.970;2022-11-12T08:39:03;14.20;99.90
71142;DHT22;58808;59.366;17.970;2022-11-12T08:41:29;14.20;99.90
71142;DHT22;58808;59.366;17.970;2022-11-12T08:43:54;14.20;99.90
71142;DHT22;58808;59.366;17.970;2022-11-12T08:46:22;14.30;99.90
71142;DHT22;58808;59.366;17.970;2022-11-12T08:48:48;14.20;99.90
71142;DHT22;58808;59.366;17.970;2022-11-12T08:51:14;14.30;99.90
71142;DHT22;58808;59.366;17.970;2022-11-12T08:53:39;14.30;99.90
71142;DHT22;58808;59.366;17.970;2022-11-12T08:56:05;14.30;99.90
71142;DHT22;58808;59.366;17.970;2022-11-12T08:58:31;14.40;99.90
71142;DHT22;58808;59.366;17.970;2022-11-12T09:01:03;14.40;99.90
71142;DHT22;58808;59.366;17.970;2022-11-12T09:03:29;14.40;99.90
71142;DHT22;58808;59.366;17.970;2022-11-12T09:05:55;14.40;99.90
71142;DHT22;58808;59.366;17.970;2022-11-12T09:08:23;14.50;99.90
71142;DHT22;58808;59.366;17.970;2022-11-12T09:10:50;14.50;99.90
71142;DHT22;58808;59.366;17.970;2022-11-12T09:13:16;14.50;99.90
71142;DHT22;58808;59.366;17.970;2022-11-12T09:15:43;14.60;99.90
71142;DHT22;58808;59.366;17.970;2022-11-12T09:18:14;14.60;99.90
71142;DHT22;58808;59.366;17.970;2022-11-12T09:20:40;14.60;99.90
71142;DHT22;58808;59.366;17.970;2022-11-12T09:23:09;14.70;99.90
71142;DHT22;58808;59.366;17.970;2022-11-12T09:25:35;14.70;99.90
71142;DHT22;58808;59.366;17.970;2022-11-12T09:28:16;14.70;99.90
71142;DHT22;58808;59.366;17.970;2022-11-12T09:30:49;14.70;99.90
71142;DHT22;58808;59.366;17.970;2022-11-12T09:33:17;14.80;99.90
71142;DHT22;58808;59.366;17.970;2022-11-12T09:35:44;14.80;99.90
71142;DHT22;58808;59.366;17.970;2022-11-12T09:38:10;14.80;99.90
71142;DHT22;58808;59.366;17.970;2022-11-12T09:43:22;14.90;99.90
71142;DHT22;58808;59.366;17.970;2022-11-12T09:45:51;14.90;99.90
71142;DHT22;58808;59.366;17.970;2022-11-12T09:48:24;15.00;99.90
71142;DHT22;58808;59.366;17.970;2022-11-12T09:50:59;15.00;99.90
71142;DHT22;58808;59.366;17.970;2022-11-12T09:53:43;15.10;99.90
71142;DHT22;58808;59.366;17.970;2022-11-12T09:56:12;15.10;99.90
71142;DHT22;58808;59.366;17.970;2022-11-12T09:58:38;15.10;99.90
71142;DHT22;58808;59.366;17.970;2022-11-12T10:03:56;15.20;99.90
71142;DHT22;58808;59.366;17.970;2022-11-12T10:06:28;15.20;99.90
71142;DHT22;58808;59.366;17.970;2022-11-12T10:09:15;15.10;99.90
71142;DHT22;58808;59.366;17.970;2022-11-12T10:17:41;15.10;99.90
71142;DHT22;58808;59.366;17.970;2022-11-12T10:20:31;15.20;99.90
71142;DHT22;58808;59.366;17.970;2022-11-12T10:23:05;15.20;99.90
71142;DHT22;58808;59.366;17.970;2022-11-12T10:25:34;15.30;99.90
71142;DHT22;58808;59.366;17.970;2022-11-12T10:28:06;15.40;99.90
71142;DHT22;58808;59.366;17.970;2022-11-12T10:30:34;15.40;99.90
71142;DHT22;58808;59.366;17.970;2022-11-12T10:33:01;15.40;99.90
71142;DHT22;58808;59.366;17.970;2022-11-12T10:35:27;15.40;99.90
71142;DHT22;58808;59.366;17.970;2022-11-12T10:37:58;15.40;99.90
71142;DHT22;58808;59.366;17.970;2022-11-12T10:40:34;15.50;99.90
71142;DHT22;58808;59.366;17.970;2022-11-12T10:45:43;15.50;99.90
71142;DHT22;58808;59.366;17.970;2022-11-12T10:48:30;15.60;99.90
71142;DHT22;58808;59.366;17.970;2022-11-12T10:50:58;15.60;99.90
71142;DHT22;58808;59.366;17.970;2022-11-12T10:53:37;15.60;99.90
71142;DHT22;58808;59.366;17.970;2022-11-12T10:56:08;15.60;99.90
71142;DHT22;58808;59.366;17.970;2022-11-12T10:59:17;15.60;99.90
71142;DHT22;58808;59.366;17.970;2022-11-12T11:01:44;15.60;99.90
71142;DHT22;58808;59.366;17.970;2022-11-12T11:06:48;15.70;99.90
71142;DHT22;58808;59.366;17.970;2022-11-12T11:09:22;15.70;99.90
71142;DHT22;58808;59.366;17.970;2022-11-12T11:11:51;15.80;99.90
71142;DHT22;58808;59.366;17.970;2022-11-12T11:14:33;15.80;99.90
71142;DHT22;58808;59.366;17.970;2022-11-12T11:17:04;15.80;99.90
71142;DHT22;58808;59.366;17.970;2022-11-12T11:19:42;15.80;99.90
71142;DHT22;58808;59.366;17.970;2022-11-12T11:22:37;15.80;99.90
71142;DHT22;58808;59.366;17.970;2022-11-12T11:25:17;15.70;99.90
71142;DHT22;58808;59.366;17.970;2022-11-12T11:30:29;15.60;99.90
71142;DHT22;58808;59.366;17.970;2022-11-12T11:33:23;15.60;99.90
71142;DHT22;58808;59.366;17.970;2022-11-12T11:38:32;15.50;99.90
71142;DHT22;58808;59.366;17.970;2022-11-12T11:49:14;15.50;99.90
71142;DHT22;58808;59.366;17.970;2022-11-12T11:51:52;15.50;99.90
71142;DHT22;58808;59.366;17.970;2022-11-12T11:57:10;15.40;99.90
71142;DHT22;58808;59.366;17.970;2022-11-12T11:59:51;15.40;99.90
71142;DHT22;58808;59.366;17.970;2022-11-12T12:02:21;15.50;99.90
71142;DHT22;58808;59.366;17.970;2022-11-12T12:07:54;15.50;99.90
71142;DHT22;58808;59.366;17.970;2022-11-12T12:21:40;15.50;99.90
71142;DHT22;58808;59.366;17.970;2022-11-12T12:24:24;15.50;99.90
71142;DHT22;58808;59.366;17.970;2022-11-12T12:29:42;15.50;99.90
71142;DHT22;58808;59.366;17.970;2022-11-12T12:40:53;15.50;99.90
71142;DHT22;58808;59.366;17.970;2022-11-12T12:43:37;15.40;99.90
71142;DHT22;58808;59.366;17.970;2022-11-12T12:46:05;15.40;99.90
71142;DHT22;58808;59.366;17.970;2022-11-12T12:48:39;15.40;99.90
71142;DHT22;58808;59.366;17.970;2022-11-12T12:51:06;15.30;99.90
71142;DHT22;58808;59.366;17.970;2022-11-12T12:53:34;15.30;99.90
71142;DHT22;58808;59.366;17.970;2022-11-12T12:58:57;15.20;99.90
71142;DHT22;58808;59.366;17.970;2022-11-12T13:01:31;15.20;99.90
71142;DHT22;58808;59.366;17.970;2022-11-12T13:32:57;14.90;99.90
71142;DHT22;58808;59.366;17.970;2022-11-12T13:35:35;14.90;99.90
71142;DHT22;58808;59.366;17.970;2022-11-12T13:53:59;14.70;99.90
71142;DHT22;58808;59.366;17.970;2022-11-12T13:56:33;14.70;99.90
71142;DHT22;58808;59.366;17.970;2022-11-12T13:59:15;14.60;99.90
71142;DHT22;58808;59.366;17.970;2022-11-12T14:01:41;14.60;99.90
71142;DHT22;58808;59.366;17.970;2022-11-12T14:04:10;14.60;99.90
71142;DHT22;58808;59.366;17.970;2022-11-12T14:06:40;14.50;99.90
71142;DHT22;58808;59.366;17.970;2022-11-12T14:09:40;14.50;99.90
71142;DHT22;58808;59.366;17.970;2022-11-12T14:12:33;14.40;99.90
71142;DHT22;58808;59.366;17.970;2022-11-12T14:20:40;14.40;99.90
71142;DHT22;58808;59.366;17.970;2022-11-12T14:23:17;14.30;99.90
71142;DHT22;58808;59.366;17.970;2022-11-12T14:25:53;14.30;99.90
71142;DHT22;58808;59.366;17.970;2022-11-12T14:28:30;14.20;99.90
71142;DHT22;58808;59.366;17.970;2022-11-12T14:30:58;14.20;99.90
71142;DHT22;58808;59.366;17.970;2022-11-12T14:33:26;14.20;99.90
71142;DHT22;58808;59.366;17.970;2022-11-12T14:35:53;14.20;99.90
71142;DHT22;58808;59.366;17.970;2022-11-12T14:38:20;14.10;99.90
71142;DHT22;58808;59.366;17.970;2022-11-12T14:40:48;14.10;99.90
71142;DHT22;58808;59.366;17.970;2022-11-12T14:43:23;14.10;99.90
71142;DHT22;58808;59.366;17.970;2022-11-12T14:45:52;14.00;99.90
71142;DHT22;58808;59.366;17.970;2022-11-12T14:48:18;14.00;99.90
71142;DHT22;58808;59.366;17.970;2022-11-12T14:50:47;13.90;99.90
71142;DHT22;58808;59.366;17.970;2022-11-12T14:53:25;13.80;99.90
71142;DHT22;58808;59.366;17.970;2022-11-12T14:55:52;13.80;99.90
71142;DHT22;58808;59.366;17.970;2022-11-12T14:58:21;13.80;99.90
71142;DHT22;58808;59.366;17.970;2022-11-12T15:00:49;13.80;99.90
71142;DHT22;58808;59.366;17.970;2022-11-12T15:03:21;13.80;99.90
71142;DHT22;58808;59.366;17.970;2022-11-12T15:08:36;13.70;99.90
71142;DHT22;58808;59.366;17.970;2022-11-12T15:11:21;13.70;99.90
71142;DHT22;58808;59.366;17.970;2022-11-12T15:13:49;13.70;99.90
71142;DHT22;58808;59.366;17.970;2022-11-12T15:16:25;13.60;99.90
71142;DHT22;58808;59.366;17.970;2022-11-12T15:19:22;13.60;99.90
71142;DHT22;58808;59.366;17.970;2022-11-12T15:21:53;13.60;99.90
71142;DHT22;58808;59.366;17.970;2022-11-12T15:24:32;13.50;99.90
71142;DHT22;58808;59.366;17.970;2022-11-12T15:29:45;13.50;99.90
71142;DHT22;58808;59.366;17.970;2022-11-12T15:37:11;13.40;99.90
71142;DHT22;58808;59.366;17.970;2022-11-12T15:40:05;13.40;99.90
71142;DHT22;58808;59.366;17.970;2022-11-12T15:42:36;13.30;99.90
71142;DHT22;58808;59.366;17.970;2022-11-12T15:45:14;13.20;99.90
71142;DHT22;58808;59.366;17.970;2022-11-12T15:47:40;13.20;99.90
71142;DHT22;58808;59.366;17.970;2022-11-12T15:52:39;13.20;99.90
71142;DHT22;58808;59.366;17.970;2022-11-12T15:55:05;13.20;99.90
71142;DHT22;58808;59.366;17.970;2022-11-12T15:57:34;13.20;99.90
71142;DHT22;58808;59.366;17.970;2022-11-12T16:00:05;13.10;99.90
71142;DHT22;58808;59.366;17.970;2022-11-12T16:02:32;13.10;99.90
71142;DHT22;58808;59.366;17.970;2022-11-12T16:04:58;13.10;99.90
71142;DHT22;58808;59.366;17.970;2022-11-12T16:07:23;13.10;99.90
71142;DHT22;58808;59.366;17.970;2022-11-12T16:09:49;13.10;99.90
71142;DHT22;58808;59.366;17.970;2022-11-12T16:12:17;13.10;99.90
71142;DHT22;58808;59.366;17.970;2022-11-12T16:14:43;13.10;99.90
71142;DHT22;58808;59.366;17.970;2022-11-12T16:17:12;13.00;99.90
71142;DHT22;58808;59.366;17.970;2022-11-12T16:19:39;13.00;99.90
71142;DHT22;58808;59.366;17.970;2022-11-12T16:22:05;13.00;99.90
71142;DHT22;58808;59.366;17.970;2022-11-12T16:24:40;13.00;99.90
71142;DHT22;58808;59.366;17.970;2022-11-12T16:27:09;13.00;99.90
71142;DHT22;58808;59.366;17.970;2022-11-12T16:29:36;13.00;99.90
71142;DHT22;58808;59.366;17.970;2022-11-12T16:32:02;12.90;99.90
71142;DHT22;58808;59.366;17.970;2022-11-12T16:34:28;12.90;99.90
71142;DHT22;58808;59.366;17.970;2022-11-12T16:36:55;12.90;99.90
71142;DHT22;58808;59.366;17.970;2022-11-12T16:39:22;12.80;99.90
71142;DHT22;58808;59.366;17.970;2022-11-12T16:41:47;12.80;99.90
71142;DHT22;58808;59.366;17.970;2022-11-12T16:44:13;12.80;99.90
71142;DHT22;58808;59.366;17.970;2022-11-12T16:46:40;12.80;99.90
71142;DHT22;58808;59.366;17.970;2022-11-12T16:49:13;12.80;99.90
71142;DHT22;58808;59.366;17.970;2022-11-12T16:51:46;12.70;99.90
71142;DHT22;58808;59.366;17.970;2022-11-12T16:54:13;12.70;99.90
71142;DHT22;58808;59.366;17.970;2022-11-12T16:56:38;12.70;99.90
71142;DHT22;58808;59.366;17.970;2022-11-12T16:59:04;12.60;99.90
71142;DHT22;58808;59.366;17.970;2022-11-12T17:01:31;12.60;99.90
71142;DHT22;58808;59.366;17.970;2022-11-12T17:03:57;12.60;99.90
71142;DHT22;58808;59.366;17.970;2022-11-12T17:06:32;12.60;99.90
71142;DHT22;58808;59.366;17.970;2022-11-12T17:08:58;12.60;99.90
71142;DHT22;58808;59.366;17.970;2022-11-12T17:11:24;12.50;99.90
71142;DHT22;58808;59.366;17.970;2022-11-12T17:13:49;12.50;99.90
71142;DHT22;58808;59.366;17.970;2022-11-12T17:16:15;12.50;99.90
71142;DHT22;58808;59.366;17.970;2022-11-12T17:18:41;12.50;99.90
71142;DHT22;58808;59.366;17.970;2022-11-12T17:23:40;12.40;99.90
71142;DHT22;58808;59.366;17.970;2022-11-12T17:26:09;12.40;99.90
71142;DHT22;58808;59.366;17.970;2022-11-12T17:28:36;12.30;99.90
71142;DHT22;58808;59.366;17.970;2022-11-12T17:31:10;12.40;99.90
71142;DHT22;58808;59.366;17.970;2022-11-12T17:33:38;12.40;99.90
71142;DHT22;58808;59.366;17.970;2022-11-12T17:36:06;12.30;99.90
71142;DHT22;58808;59.366;17.970;2022-11-12T17:38:32;12.30;99.90